createdAt,value
2018-09-15T00:00:58.599Z,14.80
2018-09-15T00:03:26.418Z,14.90
2018-09-15T00:05:54.135Z,14.70
2018-09-15T00:08:21.806Z,14.70
2018-09-15T00:10:49.576Z,14.70
2018-09-15T00:13:18.056Z,14.70
2018-09-15T00:15:45.614Z,14.60
2018-09-15T00:18:14.577Z,14.60
2018-09-15T00:20:42.008Z,14.40
2018-09-15T00:23:10.434Z,14.50
2018-09-15T00:25:41.074Z,14.50
2018-09-15T00:28:09.268Z,14.50
2018-09-15T00:30:36.732Z,14.60
2018-09-15T00:33:04.364Z,14.50
2018-09-15T00:35:31.794Z,14.40
2018-09-15T00:37:59.250Z,14.30
2018-09-15T00:40:26.734Z,14.40
2018-09-15T00:42:54.224Z,14.40
2018-09-15T00:45:21.656Z,14.40
2018-09-15T00:47:49.369Z,14.30
2018-09-15T00:50:16.809Z,14.30
2018-09-15T00:52:44.257Z,14.20
2018-09-15T00:55:11.729Z,14.40
2018-09-15T00:57:39.148Z,14.40
2018-09-15T01:00:07.722Z,14.40
2018-09-15T01:02:35.477Z,14.10
2018-09-15T01:05:03.450Z,14.00
2018-09-15T01:07:30.942Z,14.00
2018-09-15T01:09:58.417Z,14.00
2018-09-15T01:12:25.922Z,13.80
2018-09-15T01:14:53.378Z,13.90
2018-09-15T01:17:20.808Z,13.70
2018-09-15T01:19:48.292Z,13.80
2018-09-15T01:22:15.964Z,13.70
2018-09-15T01:24:43.732Z,13.60
2018-09-15T01:27:11.179Z,13.60
2018-09-15T01:29:38.684Z,13.60
2018-09-15T01:32:06.105Z,13.70
2018-09-15T01:34:33.665Z,13.70
2018-09-15T01:37:01.340Z,13.60
2018-09-15T01:39:28.813Z,13.70
2018-09-15T01:41:56.246Z,13.80
2018-09-15T01:44:23.719Z,13.60
2018-09-15T01:46:51.180Z,13.70
2018-09-15T01:49:18.627Z,13.60
2018-09-15T01:51:46.142Z,13.70
2018-09-15T01:54:13.608Z,13.60
2018-09-15T01:56:41.047Z,13.60
2018-09-15T01:59:08.640Z,13.50
2018-09-15T02:01:36.182Z,13.50
2018-09-15T02:04:03.680Z,13.50
2018-09-15T02:06:31.133Z,13.50
2018-09-15T02:08:58.588Z,13.40
2018-09-15T02:11:26.021Z,13.30
2018-09-15T02:13:53.566Z,13.40
2018-09-15T02:16:21.024Z,13.50
2018-09-15T02:18:48.452Z,13.50
2018-09-15T02:21:15.940Z,13.30
2018-09-15T02:23:43.393Z,13.30
2018-09-15T02:26:11.772Z,13.20
2018-09-15T02:28:39.287Z,13.10
2018-09-15T02:31:07.225Z,13.10
2018-09-15T02:33:34.663Z,13.00
2018-09-15T02:36:02.111Z,12.90
2018-09-15T02:38:29.535Z,12.90
2018-09-15T02:40:56.983Z,12.90
2018-09-15T02:43:24.412Z,12.90
2018-09-15T02:45:51.937Z,12.90
2018-09-15T02:48:19.429Z,12.70
2018-09-15T02:50:46.889Z,12.80
2018-09-15T02:53:14.410Z,12.90
2018-09-15T02:55:41.913Z,13.00
2018-09-15T02:58:09.380Z,12.90
2018-09-15T03:00:36.847Z,13.00
2018-09-15T03:03:04.268Z,12.90
2018-09-15T03:05:31.727Z,12.70
2018-09-15T03:07:59.180Z,12.70
2018-09-15T03:10:27.837Z,12.80
2018-09-15T03:12:55.352Z,12.70
2018-09-15T03:15:22.845Z,12.60
2018-09-15T03:17:50.285Z,12.60
2018-09-15T03:20:17.845Z,12.50
2018-09-15T03:22:45.330Z,12.30
2018-09-15T03:25:12.790Z,12.30
2018-09-15T03:27:40.338Z,12.30
2018-09-15T03:30:07.868Z,12.30
2018-09-15T03:32:35.377Z,12.30
2018-09-15T03:35:02.851Z,12.30
2018-09-15T03:37:30.292Z,12.40
2018-09-15T03:39:57.827Z,12.40
2018-09-15T03:42:25.285Z,12.30
2018-09-15T03:44:52.713Z,12.40
2018-09-15T03:47:20.322Z,12.50
2018-09-15T03:49:47.746Z,12.50
2018-09-15T03:52:15.197Z,12.60
2018-09-15T03:54:42.663Z,12.30
2018-09-15T03:57:10.111Z,12.30
2018-09-15T03:59:37.553Z,12.50
2018-09-15T04:02:05.017Z,12.40
2018-09-15T04:04:32.436Z,12.40
2018-09-15T04:06:59.893Z,12.40
2018-09-15T04:09:27.337Z,12.40
2018-09-15T04:11:54.796Z,12.40
2018-09-15T04:14:22.211Z,12.50
2018-09-15T04:16:49.664Z,12.50
2018-09-15T04:19:17.097Z,12.60
2018-09-15T04:21:44.616Z,12.50
2018-09-15T04:24:12.099Z,12.50
2018-09-15T04:26:39.526Z,12.50
2018-09-15T04:29:07.012Z,12.60
2018-09-15T04:31:34.468Z,12.70
2018-09-15T04:34:01.906Z,12.60
2018-09-15T04:36:29.356Z,12.60
2018-09-15T04:38:56.874Z,12.70
2018-09-15T04:41:24.361Z,12.60
2018-09-15T04:43:51.907Z,12.60
2018-09-15T04:46:19.374Z,12.70
2018-09-15T04:48:47.265Z,12.70
2018-09-15T04:51:14.728Z,12.50
2018-09-15T04:53:42.200Z,12.60
2018-09-15T04:56:09.641Z,12.80
2018-09-15T04:58:37.168Z,12.70
2018-09-15T05:01:04.859Z,12.60
2018-09-15T05:03:32.368Z,12.50
2018-09-15T05:05:59.836Z,12.40
2018-09-15T05:08:27.444Z,12.50
2018-09-15T05:10:54.950Z,12.40
2018-09-15T05:13:22.420Z,12.40
2018-09-15T05:15:49.864Z,12.40
2018-09-15T05:18:17.424Z,12.40
2018-09-15T05:20:44.921Z,12.40
2018-09-15T05:23:12.383Z,12.40
2018-09-15T05:25:39.801Z,12.40
2018-09-15T05:28:07.248Z,12.40
2018-09-15T05:30:34.912Z,12.40
2018-09-15T05:33:02.373Z,12.40
2018-09-15T05:35:29.864Z,12.30
2018-09-15T05:37:57.396Z,12.60
2018-09-15T05:40:24.852Z,12.30
2018-09-15T05:42:52.343Z,12.30
2018-09-15T05:45:19.961Z,12.30
2018-09-15T05:47:47.401Z,12.40
2018-09-15T05:50:14.891Z,12.30
2018-09-15T05:52:42.368Z,12.30
2018-09-15T05:55:11.729Z,12.40
2018-09-15T05:57:39.190Z,12.70
2018-09-15T06:00:06.803Z,12.50
2018-09-15T06:02:34.410Z,12.50
2018-09-15T06:05:01.900Z,12.60
2018-09-15T06:07:29.528Z,12.60
2018-09-15T06:09:57.507Z,12.70
2018-09-15T06:12:24.967Z,12.80
2018-09-15T06:14:52.428Z,12.80
2018-09-15T06:17:20.085Z,12.90
2018-09-15T06:19:47.556Z,13.20
2018-09-15T06:22:15.008Z,13.30
2018-09-15T06:24:42.461Z,13.30
2018-09-15T06:27:09.897Z,13.50
2018-09-15T06:29:37.492Z,13.60
2018-09-15T06:32:05.029Z,13.70
2018-09-15T06:34:32.502Z,13.50
2018-09-15T06:36:59.955Z,13.40
2018-09-15T06:39:27.529Z,13.50
2018-09-15T06:41:54.963Z,13.70
2018-09-15T06:44:22.425Z,13.60
2018-09-15T06:46:49.958Z,13.50
2018-09-15T06:49:17.399Z,13.50
2018-09-15T06:51:44.916Z,13.60
2018-09-15T06:54:12.431Z,13.90
2018-09-15T06:56:39.881Z,13.60
2018-09-15T06:59:07.510Z,13.70
2018-09-15T07:01:38.180Z,13.60
2018-09-15T07:04:06.453Z,13.70
2018-09-15T07:06:33.871Z,13.90
2018-09-15T07:09:01.527Z,13.80
2018-09-15T07:11:28.976Z,13.80
2018-09-15T07:13:56.477Z,13.90
2018-09-15T07:16:23.910Z,14.10
2018-09-15T07:18:51.441Z,14.00
2018-09-15T07:21:18.958Z,13.90
2018-09-15T07:23:46.517Z,14.00
2018-09-15T07:26:13.941Z,14.00
2018-09-15T07:28:41.404Z,14.00
2018-09-15T07:31:09.233Z,14.10
2018-09-15T07:33:36.742Z,14.20
2018-09-15T07:36:04.508Z,14.30
2018-09-15T07:38:32.029Z,14.30
2018-09-15T07:40:59.462Z,14.20
2018-09-15T07:43:26.915Z,14.40
2018-09-15T07:45:54.485Z,14.30
2018-09-15T07:48:21.916Z,14.20
2018-09-15T07:50:49.372Z,14.40
2018-09-15T07:53:16.848Z,14.60
2018-09-15T07:55:44.305Z,14.80
2018-09-15T07:58:11.744Z,14.70
2018-09-15T08:00:39.221Z,14.80
2018-09-15T08:03:06.745Z,15.20
2018-09-15T08:05:34.192Z,15.20
2018-09-15T08:08:01.737Z,14.90
2018-09-15T08:10:29.321Z,14.90
2018-09-15T08:12:56.760Z,15.10
2018-09-15T08:15:24.232Z,15.20
2018-09-15T08:17:51.681Z,15.30
2018-09-15T08:20:19.147Z,15.00
2018-09-15T08:22:46.604Z,15.00
2018-09-15T08:25:14.162Z,14.90
2018-09-15T08:27:41.635Z,15.10
2018-09-15T08:30:09.179Z,15.20
2018-09-15T08:32:36.607Z,15.40
2018-09-15T08:35:04.225Z,15.60
2018-09-15T08:37:31.680Z,15.60
2018-09-15T08:39:59.313Z,15.80
2018-09-15T08:42:26.784Z,15.80
2018-09-15T08:44:54.292Z,16.00
2018-09-15T08:47:21.796Z,16.00
2018-09-15T08:49:49.261Z,15.90
2018-09-15T08:52:16.765Z,15.90
2018-09-15T08:54:44.234Z,16.10
2018-09-15T08:57:11.820Z,16.20
2018-09-15T08:59:39.376Z,16.40
2018-09-15T09:02:11.652Z,16.70
2018-09-15T09:04:39.115Z,16.60
2018-09-15T09:07:06.627Z,16.90
2018-09-15T09:09:34.084Z,16.80
2018-09-15T09:12:01.536Z,17.00
2018-09-15T09:14:28.973Z,16.80
2018-09-15T09:16:56.433Z,16.80
2018-09-15T09:19:23.889Z,16.80
2018-09-15T09:21:51.348Z,16.80
2018-09-15T09:24:18.753Z,16.70
2018-09-15T09:26:46.236Z,16.90
2018-09-15T09:29:13.649Z,16.60
2018-09-15T09:31:41.109Z,16.70
2018-09-15T09:34:08.628Z,16.70
2018-09-15T09:36:36.061Z,16.90
2018-09-15T09:39:06.277Z,16.70
2018-09-15T09:41:33.814Z,16.70
2018-09-15T09:44:01.193Z,17.00
2018-09-15T09:46:28.657Z,17.10
2018-09-15T09:48:56.188Z,17.30
2018-09-15T09:51:23.747Z,17.40
2018-09-15T09:53:51.206Z,17.30
2018-09-15T09:56:18.701Z,17.00
2018-09-15T09:58:46.208Z,17.00
2018-09-15T10:01:19.365Z,16.90
2018-09-15T10:03:46.800Z,16.90
2018-09-15T10:06:14.251Z,17.10
2018-09-15T10:08:41.739Z,17.40
2018-09-15T10:11:09.204Z,17.50
2018-09-15T10:13:36.668Z,17.50
2018-09-15T10:16:04.289Z,17.60
2018-09-15T10:18:31.672Z,17.70
2018-09-15T10:20:59.183Z,17.70
2018-09-15T10:23:26.637Z,17.70
2018-09-15T10:25:54.181Z,18.00
2018-09-15T10:28:21.596Z,17.80
2018-09-15T10:30:49.080Z,17.80
2018-09-15T10:33:16.512Z,17.70
2018-09-15T10:35:43.999Z,17.70
2018-09-15T10:38:11.475Z,17.80
2018-09-15T10:40:38.918Z,17.80
2018-09-15T10:43:06.431Z,18.10
2018-09-15T10:45:33.917Z,18.00
2018-09-15T10:48:01.373Z,18.10
2018-09-15T10:50:28.872Z,18.10
2018-09-15T10:52:56.356Z,18.40
2018-09-15T10:55:23.801Z,18.20
2018-09-15T10:57:51.276Z,18.60
2018-09-15T11:00:19.445Z,18.40
2018-09-15T11:02:46.976Z,18.30
2018-09-15T11:05:14.464Z,18.10
2018-09-15T11:07:41.898Z,18.10
2018-09-15T11:10:09.390Z,18.10
2018-09-15T11:12:36.872Z,18.50
2018-09-15T11:15:04.417Z,18.20
2018-09-15T11:17:31.903Z,18.00
2018-09-15T11:19:59.455Z,18.00
2018-09-15T11:22:27.003Z,18.00
2018-09-15T11:24:54.404Z,18.20
2018-09-15T11:27:21.896Z,18.10
2018-09-15T11:29:49.444Z,18.20
2018-09-15T11:32:16.928Z,18.30
2018-09-15T11:34:44.401Z,18.00
2018-09-15T11:37:11.884Z,18.30
2018-09-15T11:39:39.308Z,18.40
2018-09-15T11:42:06.795Z,18.60
2018-09-15T11:44:34.225Z,18.80
2018-09-15T11:47:01.714Z,18.50
2018-09-15T11:49:29.174Z,18.50
2018-09-15T11:51:56.663Z,18.60
2018-09-15T11:54:24.219Z,19.00
2018-09-15T11:56:51.713Z,18.90
2018-09-15T11:59:19.322Z,19.00
2018-09-15T12:01:46.826Z,19.10
2018-09-15T12:04:14.301Z,19.00
2018-09-15T12:06:41.878Z,18.60
2018-09-15T12:09:09.662Z,18.90
2018-09-15T12:11:37.109Z,19.00
2018-09-15T12:14:04.591Z,19.10
2018-09-15T12:16:32.042Z,19.40
2018-09-15T12:18:59.593Z,19.60
2018-09-15T12:21:27.112Z,19.70
2018-09-15T12:23:54.658Z,19.50
2018-09-15T12:26:22.170Z,19.40
2018-09-15T12:28:49.720Z,19.30
2018-09-15T12:31:17.320Z,18.80
2018-09-15T12:33:44.812Z,18.60
2018-09-15T12:36:12.453Z,18.40
2018-09-15T12:38:40.012Z,18.20
2018-09-15T12:41:07.554Z,17.60
2018-09-15T12:43:34.981Z,16.70
2018-09-15T12:46:02.512Z,15.90
2018-09-15T12:48:29.969Z,15.50
2018-09-15T12:50:57.551Z,15.30
2018-09-15T12:53:25.021Z,15.20
2018-09-15T12:55:52.495Z,15.10
2018-09-15T12:58:19.984Z,14.90
2018-09-15T13:00:47.521Z,15.00
2018-09-15T13:03:15.012Z,15.10
2018-09-15T13:05:42.491Z,15.20
2018-09-15T13:08:10.123Z,15.30
2018-09-15T13:10:37.644Z,15.40
2018-09-15T13:13:05.156Z,15.40
2018-09-15T13:15:32.755Z,15.10
2018-09-15T13:18:00.232Z,14.80
2018-09-15T13:20:27.735Z,14.60
2018-09-15T13:22:55.223Z,14.80
2018-09-15T13:25:22.652Z,14.70
2018-09-15T13:27:50.110Z,14.70
2018-09-15T13:30:17.776Z,14.60
2018-09-15T13:32:45.196Z,14.80
2018-09-15T13:35:12.675Z,14.90
2018-09-15T13:37:40.157Z,14.90
2018-09-15T13:40:07.618Z,15.00
2018-09-15T13:42:35.065Z,15.10
2018-09-15T13:45:02.671Z,14.90
2018-09-15T13:47:30.207Z,14.90
2018-09-15T13:49:57.686Z,15.10
2018-09-15T13:52:25.169Z,15.00
2018-09-15T13:54:52.605Z,15.30
2018-09-15T13:57:20.097Z,15.30
2018-09-15T13:59:47.539Z,15.10
2018-09-15T14:02:15.052Z,15.20
2018-09-15T14:04:42.520Z,15.10
2018-09-15T14:07:10.032Z,15.10
2018-09-15T14:09:43.475Z,15.10
2018-09-15T14:12:05.037Z,15.10
2018-09-15T14:14:32.479Z,15.40
2018-09-15T14:16:59.968Z,15.20
2018-09-15T14:19:27.575Z,15.20
2018-09-15T14:21:55.140Z,15.40
2018-09-15T14:24:22.557Z,15.40
2018-09-15T14:26:50.038Z,15.50
2018-09-15T14:29:17.605Z,15.60
2018-09-15T14:31:45.119Z,15.70
2018-09-15T14:34:12.559Z,15.50
2018-09-15T14:36:40.050Z,15.50
2018-09-15T14:39:08.997Z,15.60
2018-09-15T14:41:36.423Z,15.80
2018-09-15T14:44:03.984Z,15.60
2018-09-15T14:46:31.544Z,15.60
2018-09-15T14:48:59.194Z,15.40
2018-09-15T14:51:26.676Z,15.30
2018-09-15T14:53:54.092Z,15.40
2018-09-15T14:56:21.602Z,15.40
2018-09-15T14:58:49.133Z,15.50
2018-09-15T15:01:16.650Z,15.60
2018-09-15T15:03:44.075Z,15.40
2018-09-15T15:06:11.588Z,15.40
2018-09-15T15:08:38.997Z,15.30
2018-09-15T15:11:06.929Z,15.50
2018-09-15T15:13:34.407Z,15.40
2018-09-15T15:16:01.857Z,15.50
2018-09-15T15:18:29.556Z,15.40
2018-09-15T15:20:56.980Z,15.30
2018-09-15T15:23:24.467Z,15.30
2018-09-15T15:25:51.897Z,15.20
2018-09-15T15:28:19.433Z,15.30
2018-09-15T15:30:46.950Z,15.50
2018-09-15T15:33:14.476Z,15.60
2018-09-15T15:35:42.034Z,15.50
2018-09-15T15:38:09.533Z,15.90
2018-09-15T15:40:37.128Z,16.30
2018-09-15T15:43:04.833Z,16.90
2018-09-15T15:45:32.297Z,17.80
2018-09-15T15:47:59.857Z,18.50
2018-09-15T15:50:27.491Z,19.20
2018-09-15T15:52:55.023Z,19.90
2018-09-15T15:55:22.581Z,19.60
2018-09-15T15:57:50.137Z,19.00
2018-09-15T16:00:18.053Z,18.70
2018-09-15T16:02:45.668Z,18.40
2018-09-15T16:05:13.331Z,18.00
2018-09-15T16:07:40.941Z,17.70
2018-09-15T16:10:08.757Z,17.60
2018-09-15T16:12:36.312Z,17.30
2018-09-15T16:15:04.039Z,17.10
2018-09-15T16:17:31.517Z,17.30
2018-09-15T16:19:59.172Z,16.90
2018-09-15T16:22:26.640Z,17.00
2018-09-15T16:24:54.212Z,16.70
2018-09-15T16:27:22.048Z,16.70
2018-09-15T16:29:49.494Z,16.70
2018-09-15T16:32:16.969Z,16.70
2018-09-15T16:34:44.856Z,16.80
2018-09-15T16:37:12.926Z,16.80
2018-09-15T16:39:40.452Z,16.80
2018-09-15T16:42:08.003Z,16.50
2018-09-15T16:44:35.533Z,16.40
2018-09-15T16:47:03.266Z,16.30
2018-09-15T16:49:30.766Z,16.30
2018-09-15T16:51:58.715Z,16.60
2018-09-15T16:54:26.160Z,16.30
2018-09-15T16:56:53.691Z,16.40
2018-09-15T16:59:21.185Z,16.40
2018-09-15T17:01:48.665Z,16.20
2018-09-15T17:04:16.159Z,16.10
2018-09-15T17:06:43.629Z,16.10
2018-09-15T17:09:11.960Z,16.30
2018-09-15T17:11:39.469Z,16.20
2018-09-15T17:14:06.984Z,16.10
2018-09-15T17:16:34.494Z,15.90
2018-09-15T17:19:02.216Z,15.90
2018-09-15T17:21:29.933Z,15.90
2018-09-15T17:23:57.472Z,15.80
2018-09-15T17:26:28.867Z,15.80
2018-09-15T17:28:56.377Z,15.70
2018-09-15T17:31:23.936Z,15.60
2018-09-15T17:33:51.359Z,15.50
2018-09-15T17:36:18.804Z,15.50
2018-09-15T17:38:46.304Z,15.50
2018-09-15T17:41:13.765Z,15.40
2018-09-15T17:43:41.210Z,15.40
2018-09-15T17:46:08.701Z,15.50
2018-09-15T17:48:36.147Z,15.30
2018-09-15T17:51:03.705Z,15.40
2018-09-15T17:53:31.404Z,15.20
2018-09-15T17:55:58.868Z,15.10
2018-09-15T17:58:26.353Z,15.10
2018-09-15T18:00:53.780Z,15.00
2018-09-15T18:03:21.255Z,15.10
2018-09-15T18:05:48.771Z,15.00
2018-09-15T18:08:16.264Z,15.00
2018-09-15T18:10:43.755Z,14.90
2018-09-15T18:13:11.269Z,14.90
2018-09-15T18:15:38.759Z,15.00
2018-09-15T18:18:06.272Z,14.90
2018-09-15T18:20:33.760Z,14.90
2018-09-15T18:23:01.462Z,14.90
2018-09-15T18:25:29.007Z,14.80
2018-09-15T18:27:56.632Z,14.80
2018-09-15T18:30:24.232Z,14.80
2018-09-15T18:32:51.669Z,14.70
2018-09-15T18:35:20.034Z,14.80
2018-09-15T18:37:47.524Z,14.80
2018-09-15T18:40:15.060Z,14.80
2018-09-15T18:42:42.561Z,14.80
2018-09-15T18:45:10.073Z,14.80
2018-09-15T18:47:37.504Z,14.90
2018-09-15T18:50:05.376Z,14.80
2018-09-15T18:52:32.977Z,14.70
2018-09-15T18:55:00.465Z,14.70
2018-09-15T18:57:27.976Z,14.80
2018-09-15T18:59:55.523Z,14.90
2018-09-15T19:02:22.973Z,14.80
2018-09-15T19:04:50.721Z,14.80
2018-09-15T19:07:18.299Z,14.70
2018-09-15T19:09:45.736Z,14.70
2018-09-15T19:12:13.237Z,14.60
2018-09-15T19:14:40.672Z,14.60
2018-09-15T19:17:08.161Z,14.60
2018-09-15T19:19:35.604Z,14.50
2018-09-15T19:22:03.171Z,14.50
2018-09-15T19:24:30.693Z,14.50
2018-09-15T19:26:58.252Z,14.50
2018-09-15T19:29:25.754Z,14.50
2018-09-15T19:31:53.209Z,14.40
2018-09-15T19:34:20.827Z,14.40
2018-09-15T19:36:48.348Z,14.30
2018-09-15T19:39:15.826Z,14.30
2018-09-15T19:41:43.328Z,14.30
2018-09-15T19:44:10.770Z,14.20
2018-09-15T19:46:38.862Z,14.10
2018-09-15T19:49:07.173Z,14.00
2018-09-15T19:51:34.629Z,14.10
2018-09-15T19:54:02.153Z,14.00
2018-09-15T19:56:29.596Z,14.00
2018-09-15T19:58:57.229Z,14.00
2018-09-15T20:01:24.689Z,14.00
2018-09-15T20:03:52.126Z,14.10
2018-09-15T20:06:19.745Z,13.90
2018-09-15T20:08:47.508Z,13.90
2018-09-15T20:11:15.007Z,13.90
2018-09-15T20:13:42.523Z,14.00
2018-09-15T20:16:09.027Z,13.90
2018-09-15T20:18:35.481Z,13.80
2018-09-15T20:21:01.998Z,13.70
2018-09-15T20:23:29.483Z,13.80
2018-09-15T20:25:57.064Z,13.90
2018-09-15T20:28:24.554Z,14.00
2018-09-15T20:30:52.051Z,14.10
2018-09-15T20:33:19.661Z,14.10
2018-09-15T20:35:47.175Z,14.10
2018-09-15T20:38:14.619Z,13.90
2018-09-15T20:40:42.097Z,13.90
2018-09-15T20:43:09.532Z,13.80
2018-09-15T20:45:36.994Z,13.90
2018-09-15T20:48:04.597Z,14.00
2018-09-15T20:50:32.073Z,13.90
2018-09-15T20:52:59.508Z,13.90
2018-09-15T20:55:27.035Z,13.90
2018-09-15T20:57:54.474Z,14.00
2018-09-15T21:00:22.039Z,13.90
2018-09-15T21:02:49.541Z,14.00
2018-09-15T21:05:17.064Z,14.10
2018-09-15T21:07:44.624Z,14.00
2018-09-15T21:10:12.201Z,13.90
2018-09-15T21:12:39.742Z,13.80
2018-09-15T21:15:07.291Z,13.70
2018-09-15T21:17:34.745Z,13.80
2018-09-15T21:20:02.248Z,13.70
2018-09-15T21:22:29.726Z,13.60
2018-09-15T21:24:57.198Z,13.60
2018-09-15T21:27:24.767Z,13.60
2018-09-15T21:29:52.348Z,13.50
2018-09-15T21:32:19.833Z,13.50
2018-09-15T21:34:47.626Z,13.70
2018-09-15T21:37:15.127Z,13.60
2018-09-15T21:39:42.610Z,13.40
2018-09-15T21:42:10.064Z,13.30
2018-09-15T21:44:37.486Z,13.30
2018-09-15T21:47:05.166Z,13.40
2018-09-15T21:49:32.592Z,13.20
2018-09-15T21:52:00.077Z,13.40
2018-09-15T21:54:27.522Z,13.30
2018-09-15T21:56:55.001Z,13.20
2018-09-15T21:59:22.426Z,13.20
2018-09-15T22:01:49.919Z,13.20
2018-09-15T22:04:21.638Z,13.10
2018-09-15T22:06:50.488Z,13.00
2018-09-15T22:09:18.044Z,13.10
2018-09-15T22:11:45.521Z,13.10
2018-09-15T22:14:13.119Z,13.00
2018-09-15T22:16:41.093Z,12.90
2018-09-15T22:19:08.589Z,13.10
2018-09-15T22:21:36.248Z,13.00
2018-09-15T22:24:03.813Z,13.00
2018-09-15T22:26:31.475Z,12.90
2018-09-15T22:28:58.979Z,13.00
2018-09-15T22:31:26.689Z,13.00
2018-09-15T22:33:54.161Z,13.00
2018-09-15T22:36:21.620Z,12.90
2018-09-15T22:38:49.119Z,12.80
2018-09-15T22:41:16.977Z,12.70
2018-09-15T22:43:44.408Z,12.70
2018-09-15T22:46:11.840Z,12.80
2018-09-15T22:48:39.304Z,12.70
2018-09-15T22:51:06.916Z,12.80
2018-09-15T22:53:34.479Z,12.70
2018-09-15T22:56:01.910Z,12.70
2018-09-15T22:58:29.398Z,12.60
2018-09-15T23:00:56.915Z,12.60
2018-09-15T23:03:24.422Z,12.50
2018-09-15T23:05:51.900Z,12.50
2018-09-15T23:08:19.407Z,12.40
2018-09-15T23:10:46.867Z,12.40
2018-09-15T23:13:14.336Z,12.40
2018-09-15T23:15:41.790Z,12.40
2018-09-15T23:18:09.262Z,12.40
2018-09-15T23:20:36.805Z,12.50
2018-09-15T23:23:04.481Z,12.50
2018-09-15T23:25:31.960Z,12.50
2018-09-15T23:27:59.579Z,12.40
2018-09-15T23:30:27.049Z,12.20
2018-09-15T23:32:54.528Z,12.10
2018-09-15T23:35:22.023Z,12.10
2018-09-15T23:37:49.820Z,12.20
2018-09-15T23:40:17.256Z,12.30
2018-09-15T23:42:44.737Z,12.40
2018-09-15T23:45:12.228Z,12.40
2018-09-15T23:47:39.649Z,12.40
2018-09-15T23:50:07.176Z,12.30
2018-09-15T23:52:34.621Z,12.20
2018-09-15T23:55:02.497Z,12.30
2018-09-15T23:57:29.985Z,12.30
2018-09-15T23:59:57.548Z,12.40
